Shear Water — WDB2424 — position and weather

sailwx.info

Track history (hours):
 
Tides and Currents Weather Stations Pressure Air Temp Water Temp Dewpoint Dewpoint Depression Visibility Wind Speed Wind Dir Waves Ship Positions

Shear Water

Owner: N.O.A.A., santa barbara, CA. More information available from US FCC via Universal Licensing System and Coast Guard Vessel Documentation Center.

Last reported at 2018-Feb-16 22:38 UTC. Time now 2018-Feb-19 18:09 UTC.
Position N 34°24' W 119°41'.

Length 20 m.

MMSI: 366875820.

Date/timePositionNaut miles runAvg speedWind from/ knotsBaromVisibWave heightAir tempDewpointWater temp
2018-Feb-16 22:38N 34°24' W 119°41'217.3
2018-Feb-16 22:30N 34°23' W 119°43'1018.7
2018-Feb-16 21:57N 34°19' W 119°55'612.0
2018-Feb-16 21:27N 34°16' W 120°01'0 0.3
2018-Feb-16 20:53N 34°17' W 120°01'1 2.1
2018-Feb-16 20:28N 34°17' W 120°02'918.2
2018-Feb-16 19:58N 34°18' W 120°13'816.9
2018-Feb-16 19:29N 34°18' W 120°23'917.3
2018-Feb-16 18:58N 34°18' W 120°34'817.2
2018-Feb-16 18:30N 34°19' W 120°43'4 8.0
2018-Feb-16 18:00N 34°20' W 120°48'0 0.5
2018-Feb-16 17:29N 34°19' W 120°48'1 2.7
2018-Feb-16 17:00N 34°20' W 120°47'917.7
2018-Feb-16 16:30N 34°21' W 120°36'917.9
2018-Feb-16 15:59N 34°21' W 120°25'1017.9
2018-Feb-16 15:27N 34°21' W 120°13'817.7
2018-Feb-16 15:00N 34°22' W 120°04'918.0
2018-Feb-16 14:30N 34°22' W 119°53'917.7
2018-Feb-16 13:59N 34°23' W 119°41'1 0.1
2018-Feb-16 01:59N 34°24' W 119°41'0 0.0
2018-Feb-15 23:54N 34°24' W 119°41'0 0.4
2018-Feb-15 23:29N 34°24' W 119°42'0 0.0
2018-Feb-15 23:00N 34°24' W 119°42'0 0.3
2018-Feb-15 22:24N 34°24' W 119°41'0 0.0
2018-Feb-15 21:57N 34°24' W 119°41'0 0.0
2018-Feb-15 21:27N 34°24' W 119°41'0 0.0
2018-Feb-15 20:59N 34°24' W 119°41'0 0.0
2018-Feb-15 20:31N 34°24' W 119°41'0 0.0
2018-Feb-15 19:58N 34°24' W 119°41'0 0.0
2018-Feb-15 19:25N 34°24' W 119°41'0 0.0
2018-Feb-15 18:57N 34°24' W 119°41'0 0.0
2018-Feb-15 18:29N 34°24' W 119°41'0 0.0
2018-Feb-15 18:01N 34°24' W 119°41'  
Track history (hours):
 
Tides and Currents Weather Stations Pressure Air Temp Water Temp Dewpoint Dewpoint Depression Visibility Wind Speed Wind Dir Waves Ship Positions

Shear Water

Owner: N.O.A.A., santa barbara, CA. More information available from US FCC via Universal Licensing System and Coast Guard Vessel Documentation Center.

Last reported at 2018-Feb-16 22:38 UTC. Time now 2018-Feb-19 18:09 UTC.
Position N 34°24' W 119°41'.

Length 20 m.

MMSI: 366875820.

Date/timePositionNaut miles runAvg speedWind from/ knotsBaromVisibWave heightAir tempDewpointWater temp
2018-Feb-16 22:38N 34°24' W 119°41'217.3
2018-Feb-16 22:30N 34°23' W 119°43'1018.7
2018-Feb-16 21:57N 34°19' W 119°55'612.0
2018-Feb-16 21:27N 34°16' W 120°01'0 0.3
2018-Feb-16 20:53N 34°17' W 120°01'1 2.1
2018-Feb-16 20:28N 34°17' W 120°02'918.2
2018-Feb-16 19:58N 34°18' W 120°13'816.9
2018-Feb-16 19:29N 34°18' W 120°23'917.3
2018-Feb-16 18:58N 34°18' W 120°34'817.2
2018-Feb-16 18:30N 34°19' W 120°43'4 8.0
2018-Feb-16 18:00N 34°20' W 120°48'0 0.5
2018-Feb-16 17:29N 34°19' W 120°48'1 2.7
2018-Feb-16 17:00N 34°20' W 120°47'917.7
2018-Feb-16 16:30N 34°21' W 120°36'917.9
2018-Feb-16 15:59N 34°21' W 120°25'1017.9
2018-Feb-16 15:27N 34°21' W 120°13'817.7
2018-Feb-16 15:00N 34°22' W 120°04'918.0
2018-Feb-16 14:30N 34°22' W 119°53'917.7
2018-Feb-16 13:59N 34°23' W 119°41'1 0.1
2018-Feb-16 01:59N 34°24' W 119°41'0 0.0
2018-Feb-15 23:54N 34°24' W 119°41'0 0.4
2018-Feb-15 23:29N 34°24' W 119°42'0 0.0
2018-Feb-15 23:00N 34°24' W 119°42'0 0.3
2018-Feb-15 22:24N 34°24' W 119°41'0 0.0
2018-Feb-15 21:57N 34°24' W 119°41'0 0.0
2018-Feb-15 21:27N 34°24' W 119°41'0 0.0
2018-Feb-15 20:59N 34°24' W 119°41'0 0.0
2018-Feb-15 20:31N 34°24' W 119°41'0 0.0
2018-Feb-15 19:58N 34°24' W 119°41'0 0.0
2018-Feb-15 19:25N 34°24' W 119°41'0 0.0
2018-Feb-15 18:57N 34°24' W 119°41'0 0.0
2018-Feb-15 18:29N 34°24' W 119°41'0 0.0
2018-Feb-15 18:01N 34°24' W 119°41'  

Dump ship's entire track history